sensor_id;sensor_type;location;lat;lon;timestamp;pressure;altitude;pressure_sealevel;temperature;humidity
57412;BME280;43247;52.828;-8.980;2023-04-19T00:00:12;102745.04;;;11.23;77.87
57412;BME280;43247;52.828;-8.980;2023-04-19T00:01:12;102744.64;;;11.23;77.72
57412;BME280;43247;52.828;-8.980;2023-04-19T00:02:12;102745.46;;;11.22;77.69
57412;BME280;43247;52.828;-8.980;2023-04-19T00:03:13;102744.77;;;11.20;77.76
57412;BME280;43247;52.828;-8.980;2023-04-19T00:04:13;102745.08;;;11.19;77.53
57412;BME280;43247;52.828;-8.980;2023-04-19T00:05:13;102745.24;;;11.19;77.38
57412;BME280;43247;52.828;-8.980;2023-04-19T00:06:13;102743.16;;;11.17;77.52
57412;BME280;43247;52.828;-8.980;2023-04-19T00:07:14;102743.18;;;11.16;77.45
57412;BME280;43247;52.828;-8.980;2023-04-19T00:08:14;102741.97;;;11.14;77.56
57412;BME280;43247;52.828;-8.980;2023-04-19T00:09:15;102742.56;;;11.14;77.49
57412;BME280;43247;52.828;-8.980;2023-04-19T00:10:16;102740.64;;;11.13;77.53
57412;BME280;43247;52.828;-8.980;2023-04-19T00:11:16;102741.88;;;11.13;77.41
57412;BME280;43247;52.828;-8.980;2023-04-19T00:12:16;102742.08;;;11.12;77.52
57412;BME280;43247;52.828;-8.980;2023-04-19T00:13:16;102744.57;;;11.10;77.71
57412;BME280;43247;52.828;-8.980;2023-04-19T00:14:17;102743.06;;;11.10;77.38
57412;BME280;43247;52.828;-8.980;2023-04-19T00:15:18;102743.43;;;11.09;77.71
57412;BME280;43247;52.828;-8.980;2023-04-19T00:16:18;102744.58;;;11.09;77.67
57412;BME280;43247;52.828;-8.980;2023-04-19T00:17:18;102742.52;;;11.08;77.58
57412;BME280;43247;52.828;-8.980;2023-04-19T00:18:19;102742.27;;;11.07;77.50
57412;BME280;43247;52.828;-8.980;2023-04-19T00:19:20;102742.66;;;11.05;77.55
57412;BME280;43247;52.828;-8.980;2023-04-19T00:20:20;102741.17;;;11.06;77.38
57412;BME280;43247;52.828;-8.980;2023-04-19T00:21:20;102739.88;;;11.05;77.39
57412;BME280;43247;52.828;-8.980;2023-04-19T00:22:20;102738.26;;;11.04;77.44
57412;BME280;43247;52.828;-8.980;2023-04-19T00:23:21;102739.20;;;11.04;77.48
57412;BME280;43247;52.828;-8.980;2023-04-19T00:24:21;102741.24;;;11.03;77.42
57412;BME280;43247;52.828;-8.980;2023-04-19T00:25:22;102740.63;;;11.01;77.47
57412;BME280;43247;52.828;-8.980;2023-04-19T00:26:22;102742.49;;;11.00;77.54
57412;BME280;43247;52.828;-8.980;2023-04-19T00:27:23;102741.73;;;11.00;77.59
57412;BME280;43247;52.828;-8.980;2023-04-19T00:28:24;102740.91;;;10.99;77.62
57412;BME280;43247;52.828;-8.980;2023-04-19T00:29:24;102739.96;;;10.99;77.65
57412;BME280;43247;52.828;-8.980;2023-04-19T00:30:25;102736.08;;;10.97;77.55
57412;BME280;43247;52.828;-8.980;2023-04-19T00:31:25;102737.01;;;10.96;77.60
57412;BME280;43247;52.828;-8.980;2023-04-19T00:32:26;102734.34;;;10.95;77.38
57412;BME280;43247;52.828;-8.980;2023-04-19T00:33:26;102733.33;;;10.94;77.49
57412;BME280;43247;52.828;-8.980;2023-04-19T00:34:27;102733.74;;;10.93;77.25
57412;BME280;43247;52.828;-8.980;2023-04-19T00:35:27;102731.27;;;10.93;77.13
57412;BME280;43247;52.828;-8.980;2023-04-19T00:36:28;102731.47;;;10.92;76.98
57412;BME280;43247;52.828;-8.980;2023-04-19T00:37:29;102730.91;;;10.91;76.87
57412;BME280;43247;52.828;-8.980;2023-04-19T00:38:29;102731.16;;;10.91;77.00
57412;BME280;43247;52.828;-8.980;2023-04-19T00:39:30;102732.77;;;10.91;76.94
57412;BME280;43247;52.828;-8.980;2023-04-19T00:40:31;102731.49;;;10.88;77.11
57412;BME280;43247;52.828;-8.980;2023-04-19T00:41:31;102729.27;;;10.89;76.96
57412;BME280;43247;52.828;-8.980;2023-04-19T00:42:31;102728.72;;;10.88;76.96
57412;BME280;43247;52.828;-8.980;2023-04-19T00:43:31;102725.77;;;10.87;76.94
57412;BME280;43247;52.828;-8.980;2023-04-19T00:44:32;102722.20;;;10.87;76.86
57412;BME280;43247;52.828;-8.980;2023-04-19T00:45:34;102720.88;;;10.86;76.85
57412;BME280;43247;52.828;-8.980;2023-04-19T00:46:33;102720.13;;;10.85;76.93
57412;BME280;43247;52.828;-8.980;2023-04-19T00:47:34;102716.83;;;10.84;77.00
57412;BME280;43247;52.828;-8.980;2023-04-19T00:48:34;102717.71;;;10.84;77.03
57412;BME280;43247;52.828;-8.980;2023-04-19T00:49:35;102713.75;;;10.84;76.99
57412;BME280;43247;52.828;-8.980;2023-04-19T00:50:35;102711.74;;;10.82;77.02
57412;BME280;43247;52.828;-8.980;2023-04-19T00:51:36;102711.77;;;10.82;76.89
57412;BME280;43247;52.828;-8.980;2023-04-19T00:52:36;102710.84;;;10.81;77.01
57412;BME280;43247;52.828;-8.980;2023-04-19T00:53:37;102707.93;;;10.81;76.94
57412;BME280;43247;52.828;-8.980;2023-04-19T00:54:38;102710.59;;;10.81;76.83
57412;BME280;43247;52.828;-8.980;2023-04-19T00:55:38;102711.12;;;10.80;76.86
57412;BME280;43247;52.828;-8.980;2023-04-19T00:56:38;102709.55;;;10.79;76.76
57412;BME280;43247;52.828;-8.980;2023-04-19T00:57:38;102708.17;;;10.78;76.77
57412;BME280;43247;52.828;-8.980;2023-04-19T00:58:39;102705.38;;;10.77;76.75
57412;BME280;43247;52.828;-8.980;2023-04-19T00:59:39;102710.27;;;10.76;76.82
57412;BME280;43247;52.828;-8.980;2023-04-19T01:00:39;102709.95;;;10.77;76.88
57412;BME280;43247;52.828;-8.980;2023-04-19T01:01:39;102708.42;;;10.76;76.74
57412;BME280;43247;52.828;-8.980;2023-04-19T01:02:39;102709.65;;;10.77;76.63
57412;BME280;43247;52.828;-8.980;2023-04-19T01:03:40;102709.65;;;10.76;76.59
57412;BME280;43247;52.828;-8.980;2023-04-19T01:04:40;102706.98;;;10.74;76.59
57412;BME280;43247;52.828;-8.980;2023-04-19T01:05:41;102708.28;;;10.75;76.45
57412;BME280;43247;52.828;-8.980;2023-04-19T01:06:41;102705.20;;;10.74;76.36
57412;BME280;43247;52.828;-8.980;2023-04-19T01:07:42;102708.75;;;10.73;76.39
57412;BME280;43247;52.828;-8.980;2023-04-19T01:08:42;102705.24;;;10.74;76.32
57412;BME280;43247;52.828;-8.980;2023-04-19T01:09:43;102704.94;;;10.73;76.51
57412;BME280;43247;52.828;-8.980;2023-04-19T01:10:43;102705.13;;;10.72;76.57
57412;BME280;43247;52.828;-8.980;2023-04-19T01:11:44;102705.42;;;10.74;76.56
57412;BME280;43247;52.828;-8.980;2023-04-19T01:12:44;102704.11;;;10.74;76.47
57412;BME280;43247;52.828;-8.980;2023-04-19T01:13:44;102702.96;;;10.74;76.35
57412;BME280;43247;52.828;-8.980;2023-04-19T01:14:45;102701.09;;;10.74;76.22
57412;BME280;43247;52.828;-8.980;2023-04-19T01:15:45;102701.24;;;10.73;76.40
57412;BME280;43247;52.828;-8.980;2023-04-19T01:16:46;102701.36;;;10.72;76.44
57412;BME280;43247;52.828;-8.980;2023-04-19T01:17:46;102704.89;;;10.72;76.38
57412;BME280;43247;52.828;-8.980;2023-04-19T01:18:47;102702.78;;;10.72;76.33
57412;BME280;43247;52.828;-8.980;2023-04-19T01:19:47;102701.12;;;10.71;76.42
57412;BME280;43247;52.828;-8.980;2023-04-19T01:20:47;102701.71;;;10.71;76.32
57412;BME280;43247;52.828;-8.980;2023-04-19T01:21:48;102703.09;;;10.71;76.36
57412;BME280;43247;52.828;-8.980;2023-04-19T01:22:49;102701.48;;;10.72;76.30
57412;BME280;43247;52.828;-8.980;2023-04-19T01:23:49;102699.25;;;10.70;76.50
57412;BME280;43247;52.828;-8.980;2023-04-19T01:24:50;102699.20;;;10.70;76.30
57412;BME280;43247;52.828;-8.980;2023-04-19T01:25:50;102700.48;;;10.70;76.30
57412;BME280;43247;52.828;-8.980;2023-04-19T01:26:51;102699.57;;;10.69;76.32
57412;BME280;43247;52.828;-8.980;2023-04-19T01:27:52;102700.15;;;10.69;76.32
57412;BME280;43247;52.828;-8.980;2023-04-19T01:28:52;102698.70;;;10.68;76.31
57412;BME280;43247;52.828;-8.980;2023-04-19T01:29:53;102697.18;;;10.67;76.34
57412;BME280;43247;52.828;-8.980;2023-04-19T01:30:53;102694.94;;;10.67;76.46
57412;BME280;43247;52.828;-8.980;2023-04-19T01:31:54;102694.35;;;10.67;76.42
57412;BME280;43247;52.828;-8.980;2023-04-19T01:32:55;102694.97;;;10.66;76.51
57412;BME280;43247;52.828;-8.980;2023-04-19T01:33:55;102695.98;;;10.65;76.48
57412;BME280;43247;52.828;-8.980;2023-04-19T01:34:56;102698.02;;;10.65;76.61
57412;BME280;43247;52.828;-8.980;2023-04-19T01:35:56;102698.28;;;10.64;76.57
57412;BME280;43247;52.828;-8.980;2023-04-19T01:36:57;102698.38;;;10.63;76.46
57412;BME280;43247;52.828;-8.980;2023-04-19T01:37:57;102696.39;;;10.63;76.42
57412;BME280;43247;52.828;-8.980;2023-04-19T01:38:57;102697.72;;;10.62;76.42
57412;BME280;43247;52.828;-8.980;2023-04-19T01:39:58;102696.20;;;10.61;76.50
57412;BME280;43247;52.828;-8.980;2023-04-19T01:40:59;102695.18;;;10.60;76.56
57412;BME280;43247;52.828;-8.980;2023-04-19T01:41:59;102696.12;;;10.61;76.32
57412;BME280;43247;52.828;-8.980;2023-04-19T01:42:59;102694.61;;;10.60;76.24
57412;BME280;43247;52.828;-8.980;2023-04-19T01:44:00;102691.44;;;10.58;75.61
57412;BME280;43247;52.828;-8.980;2023-04-19T01:45:01;102689.46;;;10.58;74.65
57412;BME280;43247;52.828;-8.980;2023-04-19T01:46:01;102690.00;;;10.57;74.28
57412;BME280;43247;52.828;-8.980;2023-04-19T01:47:01;102686.46;;;10.58;74.14
57412;BME280;43247;52.828;-8.980;2023-04-19T01:48:01;102685.75;;;10.59;73.91
57412;BME280;43247;52.828;-8.980;2023-04-19T01:49:02;102685.45;;;10.59;73.63
57412;BME280;43247;52.828;-8.980;2023-04-19T01:50:03;102682.07;;;10.61;73.73
57412;BME280;43247;52.828;-8.980;2023-04-19T01:51:04;102684.45;;;10.63;73.60
57412;BME280;43247;52.828;-8.980;2023-04-19T01:52:04;102682.07;;;10.64;73.82
57412;BME280;43247;52.828;-8.980;2023-04-19T01:53:04;102680.70;;;10.64;73.81
57412;BME280;43247;52.828;-8.980;2023-04-19T01:54:04;102682.61;;;10.64;73.88
57412;BME280;43247;52.828;-8.980;2023-04-19T01:55:05;102680.58;;;10.64;74.09
57412;BME280;43247;52.828;-8.980;2023-04-19T01:56:06;102679.52;;;10.66;74.00
57412;BME280;43247;52.828;-8.980;2023-04-19T01:57:06;102677.89;;;10.65;73.87
57412;BME280;43247;52.828;-8.980;2023-04-19T01:58:06;102677.69;;;10.66;74.04
57412;BME280;43247;52.828;-8.980;2023-04-19T01:59:07;102678.18;;;10.65;74.24
57412;BME280;43247;52.828;-8.980;2023-04-19T02:00:09;102678.42;;;10.63;74.18
57412;BME280;43247;52.828;-8.980;2023-04-19T02:01:08;102678.43;;;10.63;74.29
57412;BME280;43247;52.828;-8.980;2023-04-19T02:02:09;102678.02;;;10.66;73.88
57412;BME280;43247;52.828;-8.980;2023-04-19T02:03:09;102672.73;;;10.68;74.16
57412;BME280;43247;52.828;-8.980;2023-04-19T02:04:10;102671.19;;;10.68;74.19
57412;BME280;43247;52.828;-8.980;2023-04-19T02:05:10;102670.42;;;10.66;74.19
57412;BME280;43247;52.828;-8.980;2023-04-19T02:06:12;102671.05;;;10.67;74.02
57412;BME280;43247;52.828;-8.980;2023-04-19T02:07:12;102671.81;;;10.66;74.04
57412;BME280;43247;52.828;-8.980;2023-04-19T02:08:12;102670.31;;;10.67;74.44
57412;BME280;43247;52.828;-8.980;2023-04-19T02:09:13;102673.01;;;10.67;74.27
57412;BME280;43247;52.828;-8.980;2023-04-19T02:10:13;102671.42;;;10.68;74.32
57412;BME280;43247;52.828;-8.980;2023-04-19T02:11:14;102674.82;;;10.67;74.43
57412;BME280;43247;52.828;-8.980;2023-04-19T02:12:15;102673.60;;;10.66;74.40
57412;BME280;43247;52.828;-8.980;2023-04-19T02:13:15;102670.77;;;10.65;74.32
57412;BME280;43247;52.828;-8.980;2023-04-19T02:14:16;102671.00;;;10.63;74.38
57412;BME280;43247;52.828;-8.980;2023-04-19T02:15:16;102663.59;;;10.64;74.56
57412;BME280;43247;52.828;-8.980;2023-04-19T02:16:17;102668.22;;;10.62;74.71
57412;BME280;43247;52.828;-8.980;2023-04-19T02:17:18;102667.62;;;10.62;74.83
57412;BME280;43247;52.828;-8.980;2023-04-19T02:18:18;102667.58;;;10.60;74.94
57412;BME280;43247;52.828;-8.980;2023-04-19T02:19:18;102667.31;;;10.60;74.81
57412;BME280;43247;52.828;-8.980;2023-04-19T02:20:19;102664.81;;;10.59;74.86
57412;BME280;43247;52.828;-8.980;2023-04-19T02:21:19;102662.89;;;10.59;74.93
57412;BME280;43247;52.828;-8.980;2023-04-19T02:22:20;102662.69;;;10.59;74.69
57412;BME280;43247;52.828;-8.980;2023-04-19T02:23:20;102661.15;;;10.57;74.89
57412;BME280;43247;52.828;-8.980;2023-04-19T02:24:20;102659.57;;;10.59;74.79
57412;BME280;43247;52.828;-8.980;2023-04-19T02:25:20;102660.92;;;10.59;74.90
57412;BME280;43247;52.828;-8.980;2023-04-19T02:26:20;102659.13;;;10.57;74.90
57412;BME280;43247;52.828;-8.980;2023-04-19T02:27:20;102658.53;;;10.57;74.74
57412;BME280;43247;52.828;-8.980;2023-04-19T02:28:21;102658.98;;;10.57;74.69
57412;BME280;43247;52.828;-8.980;2023-04-19T02:29:21;102657.48;;;10.56;74.62
57412;BME280;43247;52.828;-8.980;2023-04-19T02:30:21;102657.08;;;10.54;74.67
57412;BME280;43247;52.828;-8.980;2023-04-19T02:31:22;102657.48;;;10.54;74.70
57412;BME280;43247;52.828;-8.980;2023-04-19T02:32:23;102657.90;;;10.53;74.88
57412;BME280;43247;52.828;-8.980;2023-04-19T02:33:25;102656.41;;;10.53;74.70
57412;BME280;43247;52.828;-8.980;2023-04-19T02:34:23;102657.98;;;10.53;74.74
57412;BME280;43247;52.828;-8.980;2023-04-19T02:35:24;102659.09;;;10.54;73.69
57412;BME280;43247;52.828;-8.980;2023-04-19T02:36:25;102658.08;;;10.52;74.54
57412;BME280;43247;52.828;-8.980;2023-04-19T02:37:26;102660.69;;;10.52;74.28
57412;BME280;43247;52.828;-8.980;2023-04-19T02:38:26;102657.54;;;10.51;74.66
57412;BME280;43247;52.828;-8.980;2023-04-19T02:39:27;102655.19;;;10.50;74.68
57412;BME280;43247;52.828;-8.980;2023-04-19T02:40:27;102657.68;;;10.48;74.69
57412;BME280;43247;52.828;-8.980;2023-04-19T02:41:27;102654.02;;;10.48;74.62
57412;BME280;43247;52.828;-8.980;2023-04-19T02:42:28;102656.40;;;10.49;74.73
57412;BME280;43247;52.828;-8.980;2023-04-19T02:43:29;102655.61;;;10.48;74.73
57412;BME280;43247;52.828;-8.980;2023-04-19T02:44:29;102653.53;;;10.47;74.78
57412;BME280;43247;52.828;-8.980;2023-04-19T02:45:29;102649.75;;;10.46;74.82
57412;BME280;43247;52.828;-8.980;2023-04-19T02:46:30;102647.85;;;10.45;74.77
57412;BME280;43247;52.828;-8.980;2023-04-19T02:47:30;102648.33;;;10.45;74.75
57412;BME280;43247;52.828;-8.980;2023-04-19T02:48:31;102647.27;;;10.44;74.81
57412;BME280;43247;52.828;-8.980;2023-04-19T02:49:30;102647.03;;;10.44;74.91
57412;BME280;43247;52.828;-8.980;2023-04-19T02:50:32;102645.52;;;10.44;74.87
57412;BME280;43247;52.828;-8.980;2023-04-19T02:51:32;102643.11;;;10.44;74.73
57412;BME280;43247;52.828;-8.980;2023-04-19T02:52:32;102643.33;;;10.43;74.91
57412;BME280;43247;52.828;-8.980;2023-04-19T02:53:32;102642.09;;;10.45;74.57
57412;BME280;43247;52.828;-8.980;2023-04-19T02:54:33;102641.56;;;10.44;74.55
57412;BME280;43247;52.828;-8.980;2023-04-19T02:55:34;102641.52;;;10.44;74.13
57412;BME280;43247;52.828;-8.980;2023-04-19T02:56:34;102635.81;;;10.43;74.42
57412;BME280;43247;52.828;-8.980;2023-04-19T02:57:34;102639.48;;;10.41;74.67
57412;BME280;43247;52.828;-8.980;2023-04-19T02:58:35;102635.18;;;10.43;74.60
57412;BME280;43247;52.828;-8.980;2023-04-19T02:59:35;102636.06;;;10.42;74.12
57412;BME280;43247;52.828;-8.980;2023-04-19T03:00:35;102634.02;;;10.43;73.76
57412;BME280;43247;52.828;-8.980;2023-04-19T03:01:36;102634.78;;;10.43;73.71
57412;BME280;43247;52.828;-8.980;2023-04-19T03:02:36;102634.23;;;10.44;73.50
57412;BME280;43247;52.828;-8.980;2023-04-19T03:03:36;102628.62;;;10.46;73.33
57412;BME280;43247;52.828;-8.980;2023-04-19T03:04:37;102629.91;;;10.45;73.29
57412;BME280;43247;52.828;-8.980;2023-04-19T03:05:37;102633.50;;;10.47;73.41
57412;BME280;43247;52.828;-8.980;2023-04-19T03:06:38;102634.96;;;10.47;73.39
57412;BME280;43247;52.828;-8.980;2023-04-19T03:07:38;102633.38;;;10.46;73.29
57412;BME280;43247;52.828;-8.980;2023-04-19T03:08:39;102637.14;;;10.44;73.31
57412;BME280;43247;52.828;-8.980;2023-04-19T03:09:39;102638.25;;;10.45;73.30
57412;BME280;43247;52.828;-8.980;2023-04-19T03:10:40;102638.59;;;10.45;73.03
57412;BME280;43247;52.828;-8.980;2023-04-19T03:11:41;102643.52;;;10.45;73.36
57412;BME280;43247;52.828;-8.980;2023-04-19T03:12:41;102644.33;;;10.44;73.38
57412;BME280;43247;52.828;-8.980;2023-04-19T03:13:42;102649.47;;;10.44;73.37
57412;BME280;43247;52.828;-8.980;2023-04-19T03:14:42;102647.47;;;10.45;73.77
57412;BME280;43247;52.828;-8.980;2023-04-19T03:15:43;102646.92;;;10.42;73.75
57412;BME280;43247;52.828;-8.980;2023-04-19T03:16:44;102645.76;;;10.44;73.73
57412;BME280;43247;52.828;-8.980;2023-04-19T03:17:44;102646.04;;;10.41;73.63
57412;BME280;43247;52.828;-8.980;2023-04-19T03:18:44;102643.47;;;10.45;73.35
57412;BME280;43247;52.828;-8.980;2023-04-19T03:19:44;102645.70;;;10.44;73.47
57412;BME280;43247;52.828;-8.980;2023-04-19T03:20:45;102642.00;;;10.42;73.48
57412;BME280;43247;52.828;-8.980;2023-04-19T03:21:45;102645.51;;;10.41;73.71
57412;BME280;43247;52.828;-8.980;2023-04-19T03:22:46;102646.43;;;10.41;74.05
57412;BME280;43247;52.828;-8.980;2023-04-19T03:23:47;102647.41;;;10.40;74.22
57412;BME280;43247;52.828;-8.980;2023-04-19T03:24:47;102645.12;;;10.39;74.10
57412;BME280;43247;52.828;-8.980;2023-04-19T03:25:48;102646.48;;;10.38;74.27
57412;BME280;43247;52.828;-8.980;2023-04-19T03:26:49;102645.17;;;10.39;74.05
57412;BME280;43247;52.828;-8.980;2023-04-19T03:27:49;102643.61;;;10.39;74.17
57412;BME280;43247;52.828;-8.980;2023-04-19T03:28:50;102644.76;;;10.38;74.25
57412;BME280;43247;52.828;-8.980;2023-04-19T03:29:51;102648.03;;;10.38;74.01
57412;BME280;43247;52.828;-8.980;2023-04-19T03:30:51;102647.04;;;10.38;74.03
57412;BME280;43247;52.828;-8.980;2023-04-19T03:31:51;102646.44;;;10.37;73.60
57412;BME280;43247;52.828;-8.980;2023-04-19T03:32:52;102647.30;;;10.32;73.36
57412;BME280;43247;52.828;-8.980;2023-04-19T03:33:53;102643.19;;;10.34;73.35
57412;BME280;43247;52.828;-8.980;2023-04-19T03:34:54;102641.58;;;10.30;72.99
57412;BME280;43247;52.828;-8.980;2023-04-19T03:35:54;102641.14;;;10.33;73.34
57412;BME280;43247;52.828;-8.980;2023-04-19T03:36:55;102638.28;;;10.31;73.19
57412;BME280;43247;52.828;-8.980;2023-04-19T03:37:55;102636.78;;;10.29;72.82
57412;BME280;43247;52.828;-8.980;2023-04-19T03:38:55;102640.64;;;10.30;73.09
57412;BME280;43247;52.828;-8.980;2023-04-19T03:39:55;102640.03;;;10.29;73.37
57412;BME280;43247;52.828;-8.980;2023-04-19T03:40:55;102641.86;;;10.31;73.25
57412;BME280;43247;52.828;-8.980;2023-04-19T03:41:56;102642.73;;;10.31;73.29
57412;BME280;43247;52.828;-8.980;2023-04-19T03:42:56;102644.37;;;10.34;73.00
57412;BME280;43247;52.828;-8.980;2023-04-19T03:43:57;102646.52;;;10.33;73.03
57412;BME280;43247;52.828;-8.980;2023-04-19T03:44:57;102646.25;;;10.32;73.07
57412;BME280;43247;52.828;-8.980;2023-04-19T03:45:58;102645.69;;;10.35;73.21
57412;BME280;43247;52.828;-8.980;2023-04-19T03:46:59;102645.07;;;10.33;72.83
57412;BME280;43247;52.828;-8.980;2023-04-19T03:47:59;102645.67;;;10.33;72.99
57412;BME280;43247;52.828;-8.980;2023-04-19T03:48:59;102645.47;;;10.32;73.35
57412;BME280;43247;52.828;-8.980;2023-04-19T03:49:59;102640.44;;;10.32;73.22
57412;BME280;43247;52.828;-8.980;2023-04-19T03:51:00;102640.39;;;10.31;73.38
57412;BME280;43247;52.828;-8.980;2023-04-19T03:52:01;102640.45;;;10.30;73.34
57412;BME280;43247;52.828;-8.980;2023-04-19T03:53:03;102637.89;;;10.31;73.48
57412;BME280;43247;52.828;-8.980;2023-04-19T03:54:02;102640.00;;;10.32;73.43
57412;BME280;43247;52.828;-8.980;2023-04-19T03:55:03;102641.64;;;10.31;73.37
57412;BME280;43247;52.828;-8.980;2023-04-19T03:56:03;102641.34;;;10.30;73.19
57412;BME280;43247;52.828;-8.980;2023-04-19T03:57:03;102638.93;;;10.30;73.46
57412;BME280;43247;52.828;-8.980;2023-04-19T03:58:04;102639.95;;;10.29;73.39
57412;BME280;43247;52.828;-8.980;2023-04-19T03:59:04;102640.42;;;10.29;73.52
57412;BME280;43247;52.828;-8.980;2023-04-19T04:00:05;102639.58;;;10.28;73.57
57412;BME280;43247;52.828;-8.980;2023-04-19T04:01:05;102640.35;;;10.27;73.67
57412;BME280;43247;52.828;-8.980;2023-04-19T04:02:06;102639.39;;;10.28;73.74
57412;BME280;43247;52.828;-8.980;2023-04-19T04:03:06;102637.70;;;10.26;73.34
57412;BME280;43247;52.828;-8.980;2023-04-19T04:04:07;102638.06;;;10.25;73.84
57412;BME280;43247;52.828;-8.980;2023-04-19T04:05:07;102635.73;;;10.25;73.89
57412;BME280;43247;52.828;-8.980;2023-04-19T04:06:08;102636.47;;;10.24;73.68
57412;BME280;43247;52.828;-8.980;2023-04-19T04:07:08;102635.50;;;10.23;73.82
57412;BME280;43247;52.828;-8.980;2023-04-19T04:08:09;102634.74;;;10.22;73.95
57412;BME280;43247;52.828;-8.980;2023-04-19T04:09:09;102634.76;;;10.21;73.88
57412;BME280;43247;52.828;-8.980;2023-04-19T04:10:09;102633.59;;;10.20;73.72
57412;BME280;43247;52.828;-8.980;2023-04-19T04:11:10;102635.39;;;10.18;73.75
57412;BME280;43247;52.828;-8.980;2023-04-19T04:12:10;102635.69;;;10.20;74.00
57412;BME280;43247;52.828;-8.980;2023-04-19T04:13:11;102635.48;;;10.18;73.99
57412;BME280;43247;52.828;-8.980;2023-04-19T04:14:11;102633.23;;;10.18;74.18
57412;BME280;43247;52.828;-8.980;2023-04-19T04:15:12;102634.38;;;10.16;74.12
57412;BME280;43247;52.828;-8.980;2023-04-19T04:16:12;102633.32;;;10.16;74.06
57412;BME280;43247;52.828;-8.980;2023-04-19T04:17:13;102629.95;;;10.15;74.10
57412;BME280;43247;52.828;-8.980;2023-04-19T04:18:13;102629.57;;;10.13;74.14
57412;BME280;43247;52.828;-8.980;2023-04-19T04:19:13;102629.97;;;10.13;74.21
57412;BME280;43247;52.828;-8.980;2023-04-19T04:20:14;102629.93;;;10.12;74.29
57412;BME280;43247;52.828;-8.980;2023-04-19T04:21:15;102629.05;;;10.11;74.36
57412;BME280;43247;52.828;-8.980;2023-04-19T04:22:15;102630.38;;;10.12;74.13
57412;BME280;43247;52.828;-8.980;2023-04-19T04:23:16;102629.49;;;10.11;74.15
57412;BME280;43247;52.828;-8.980;2023-04-19T04:24:16;102629.73;;;10.10;74.24
57412;BME280;43247;52.828;-8.980;2023-04-19T04:25:17;102631.79;;;10.09;74.37
57412;BME280;43247;52.828;-8.980;2023-04-19T04:26:17;102628.94;;;10.08;74.41
57412;BME280;43247;52.828;-8.980;2023-04-19T04:27:18;102629.20;;;10.07;74.26
57412;BME280;43247;52.828;-8.980;2023-04-19T04:28:18;102629.46;;;10.08;74.37
57412;BME280;43247;52.828;-8.980;2023-04-19T04:29:19;102627.00;;;10.07;74.30
57412;BME280;43247;52.828;-8.980;2023-04-19T04:30:19;102626.52;;;10.06;74.37
57412;BME280;43247;52.828;-8.980;2023-04-19T04:31:19;102626.19;;;10.06;74.39
57412;BME280;43247;52.828;-8.980;2023-04-19T04:32:20;102625.85;;;10.05;74.43
57412;BME280;43247;52.828;-8.980;2023-04-19T04:33:21;102625.67;;;10.05;74.19
57412;BME280;43247;52.828;-8.980;2023-04-19T04:34:21;102624.86;;;10.04;74.48
57412;BME280;43247;52.828;-8.980;2023-04-19T04:35:22;102624.28;;;10.03;74.52
57412;BME280;43247;52.828;-8.980;2023-04-19T04:36:22;102624.92;;;10.02;74.36
57412;BME280;43247;52.828;-8.980;2023-04-19T04:37:23;102622.15;;;10.00;74.59
57412;BME280;43247;52.828;-8.980;2023-04-19T04:38:23;102623.50;;;9.99;74.63
57412;BME280;43247;52.828;-8.980;2023-04-19T04:39:23;102620.19;;;10.00;74.65
57412;BME280;43247;52.828;-8.980;2023-04-19T04:40:24;102620.16;;;9.98;74.62
57412;BME280;43247;52.828;-8.980;2023-04-19T04:41:24;102619.42;;;9.98;74.53
57412;BME280;43247;52.828;-8.980;2023-04-19T04:42:25;102616.77;;;9.97;74.65
57412;BME280;43247;52.828;-8.980;2023-04-19T04:43:25;102616.24;;;9.96;74.66
57412;BME280;43247;52.828;-8.980;2023-04-19T04:44:25;102615.17;;;9.95;74.70
57412;BME280;43247;52.828;-8.980;2023-04-19T04:45:26;102614.49;;;9.95;74.76
57412;BME280;43247;52.828;-8.980;2023-04-19T04:46:26;102614.88;;;9.95;74.71
57412;BME280;43247;52.828;-8.980;2023-04-19T04:47:30;102615.78;;;9.94;74.73
57412;BME280;43247;52.828;-8.980;2023-04-19T04:48:27;102617.79;;;9.93;74.72
57412;BME280;43247;52.828;-8.980;2023-04-19T04:49:28;102618.30;;;9.92;74.69
57412;BME280;43247;52.828;-8.980;2023-04-19T04:50:28;102617.56;;;9.92;74.75
57412;BME280;43247;52.828;-8.980;2023-04-19T04:51:28;102619.95;;;9.91;74.78
57412;BME280;43247;52.828;-8.980;2023-04-19T04:52:29;102619.03;;;9.91;74.70
57412;BME280;43247;52.828;-8.980;2023-04-19T04:53:30;102617.61;;;9.90;74.68
57412;BME280;43247;52.828;-8.980;2023-04-19T04:54:30;102617.80;;;9.89;74.66
57412;BME280;43247;52.828;-8.980;2023-04-19T04:55:30;102618.29;;;9.89;74.77
57412;BME280;43247;52.828;-8.980;2023-04-19T04:56:31;102621.24;;;9.90;74.63
57412;BME280;43247;52.828;-8.980;2023-04-19T04:57:32;102622.40;;;9.89;74.65
57412;BME280;43247;52.828;-8.980;2023-04-19T04:58:32;102622.21;;;9.88;74.10
57412;BME280;43247;52.828;-8.980;2023-04-19T04:59:33;102623.66;;;9.88;74.39
57412;BME280;43247;52.828;-8.980;2023-04-19T05:00:33;102623.51;;;9.88;74.47
57412;BME280;43247;52.828;-8.980;2023-04-19T05:01:34;102622.21;;;9.87;74.30
57412;BME280;43247;52.828;-8.980;2023-04-19T05:02:35;102622.16;;;9.85;74.39
57412;BME280;43247;52.828;-8.980;2023-04-19T05:03:36;102619.63;;;9.84;74.48
57412;BME280;43247;52.828;-8.980;2023-04-19T05:04:36;102619.96;;;9.82;74.53
57412;BME280;43247;52.828;-8.980;2023-04-19T05:05:36;102617.85;;;9.82;74.53
57412;BME280;43247;52.828;-8.980;2023-04-19T05:06:37;102616.48;;;9.81;74.61
57412;BME280;43247;52.828;-8.980;2023-04-19T05:07:38;102617.92;;;9.81;74.60
57412;BME280;43247;52.828;-8.980;2023-04-19T05:08:38;102618.66;;;9.80;74.61
57412;BME280;43247;52.828;-8.980;2023-04-19T05:09:39;102615.85;;;9.79;74.70
57412;BME280;43247;52.828;-8.980;2023-04-19T05:10:39;102617.71;;;9.79;74.69
57412;BME280;43247;52.828;-8.980;2023-04-19T05:11:39;102616.65;;;9.78;74.73